Time;durP1;ratioP1;P1;durP2;ratioP2;P2;SDS_P1;SDS_P2;PMS_P1;PMS_P2;Temp;Humidity;BMP_temperature;BMP_pressure;BME280_temperature;BME280_humidity;BME280_pressure;Samples;Min_cycle;Max_cycle;Signal;HPM_P1;HPM_P2
2021/08/28 00:00:05;;;;;;;5.23;2.93;;;13.70;99.90;;;;;;5048819;28;20190;-77
2021/08/28 00:02:30;;;;;;;3.50;3.20;;;13.90;99.90;;;;;;5052543;28;20248;-77
2021/08/28 00:04:56;;;;;;;4.40;3.50;;;13.50;99.90;;;;;;5057734;28;20838;-77
2021/08/28 00:07:21;;;;;;;3.67;3.37;;;13.60;99.90;;;;;;5051884;28;20186;-77
2021/08/28 00:09:47;;;;;;;3.00;2.77;;;13.50;99.90;;;;;;5052612;28;20244;-77
2021/08/28 00:12:13;;;;;;;3.97;2.73;;;13.80;99.90;;;;;;5051854;28;20194;-78
2021/08/28 00:14:38;;;;;;;3.30;3.10;;;13.70;99.90;;;;;;5054126;28;20528;-78
2021/08/28 00:17:04;;;;;;;3.30;3.03;;;13.80;99.90;;;;;;5051585;28;20265;-78
2021/08/28 00:19:29;;;;;;;3.63;3.40;;;13.80;99.90;;;;;;5045284;28;20681;-78
2021/08/28 00:21:55;;;;;;;3.83;3.50;;;13.70;99.90;;;;;;5052151;28;20237;-77
2021/08/28 00:24:20;;;;;;;4.07;3.40;;;13.60;99.90;;;;;;5066200;28;20174;-78
2021/08/28 00:26:47;;;;;;;3.90;3.60;;;13.70;99.90;;;;;;5050849;28;20240;-77
2021/08/28 00:29:13;;;;;;;3.77;3.53;;;13.60;99.90;;;;;;5056717;28;20193;-77
2021/08/28 00:31:38;;;;;;;3.30;3.00;;;13.90;99.90;;;;;;5053296;28;20431;-78
2021/08/28 00:34:04;;;;;;;3.60;3.30;;;13.70;99.90;;;;;;5057544;28;20202;-78
2021/08/28 00:36:29;;;;;;;3.57;3.27;;;13.80;99.90;;;;;;5051415;28;20190;-78
2021/08/28 00:38:55;;;;;;;3.50;3.20;;;13.60;99.90;;;;;;5051998;28;20656;-77
2021/08/28 00:41:21;;;;;;;3.80;3.40;;;13.90;99.90;;;;;;5050559;28;20234;-77
2021/08/28 00:43:46;;;;;;;3.43;3.20;;;13.50;99.90;;;;;;5050992;28;20582;-77
2021/08/28 00:46:12;;;;;;;4.77;3.80;;;13.60;99.90;;;;;;5051282;28;20224;-77
2021/08/28 00:48:37;;;;;;;4.00;3.70;;;13.80;99.90;;;;;;5050735;28;20573;-77
2021/08/28 00:51:03;;;;;;;3.47;3.17;;;13.50;99.90;;;;;;5054373;28;20206;-78
2021/08/28 00:53:28;;;;;;;4.93;3.37;;;13.80;99.90;;;;;;5050965;28;20183;-77
2021/08/28 00:55:54;;;;;;;3.70;3.40;;;13.70;99.90;;;;;;5050708;28;20182;-77
2021/08/28 00:58:22;;;;;;;3.67;3.37;;;13.70;99.90;;;;;;5055256;28;20556;-77
2021/08/28 01:00:53;;;;;;;4.40;3.57;;;13.80;99.90;;;;;;5061912;28;20645;-78
2021/08/28 01:03:27;;;;;;;3.40;3.10;;;13.60;99.90;;;;;;5050697;28;20429;-77
2021/08/28 01:06:11;;;;;;;3.63;3.07;;;13.60;99.90;;;;;;5051240;28;20429;-77
2021/08/28 01:08:45;;;;;;;4.13;3.70;;;13.40;99.90;;;;;;5054496;28;20426;-77
2021/08/28 01:11:48;;;;;;;3.47;3.17;;;13.60;99.90;;;;;;5049149;28;20525;-78
2021/08/28 01:14:25;;;;;;;3.67;3.27;;;13.50;99.90;;;;;;5050597;28;20436;-77
2021/08/28 01:16:54;;;;;;;4.83;3.70;;;13.10;99.90;;;;;;5054540;28;20438;-77
2021/08/28 01:19:40;;;;;;;3.77;3.47;;;13.20;99.90;;;;;;5042895;28;20495;-78
2021/08/28 01:22:13;;;;;;;4.10;3.40;;;13.20;99.90;;;;;;5018171;28;20488;-78
2021/08/28 01:24:41;;;;;;;3.17;2.97;;;13.10;99.90;;;;;;5050661;28;20464;-78
2021/08/28 01:27:18;;;;;;;4.30;3.50;;;13.10;99.90;;;;;;5056651;28;20435;-77
2021/08/28 01:29:44;;;;;;;4.10;3.70;;;13.00;99.90;;;;;;5064402;28;20532;-78
2021/08/28 01:32:12;;;;;;;4.03;3.60;;;13.00;99.90;;;;;;5059816;28;20475;-77
2021/08/28 01:34:39;;;;;;;4.20;3.80;;;13.00;99.90;;;;;;5050890;28;20433;-77
2021/08/28 01:37:08;;;;;;;3.93;3.50;;;13.40;99.90;;;;;;5050109;28;20437;-78
2021/08/28 01:39:35;;;;;;;3.93;3.60;;;13.10;99.90;;;;;;5057305;28;20435;-77
2021/08/28 01:42:03;;;;;;;3.40;3.10;;;13.30;99.90;;;;;;5054666;28;20540;-78
2021/08/28 01:44:29;;;;;;;3.83;3.43;;;13.30;99.90;;;;;;5055650;28;21017;-78
2021/08/28 01:46:55;;;;;;;4.73;3.70;;;13.40;99.90;;;;;;5049993;28;20504;-78
2021/08/28 01:49:23;;;;;;;3.80;3.37;;;13.40;99.90;;;;;;5049693;28;20488;-78
2021/08/28 01:51:49;;;;;;;4.37;3.70;;;13.20;99.90;;;;;;5053981;28;20281;-78
2021/08/28 01:54:15;;;;;;;3.63;3.33;;;13.50;99.90;;;;;;5049625;28;20435;-78
2021/08/28 01:56:40;;;;;;;3.67;3.37;;;13.30;99.90;;;;;;5049992;28;20448;-78
2021/08/28 01:59:06;;;;;;;3.70;3.40;;;13.50;99.90;;;;;;5049776;28;20646;-78
2021/08/28 02:01:32;;;;;;;3.37;3.07;;;13.20;99.90;;;;;;5049586;28;20210;-77
2021/08/28 02:03:57;;;;;;;5.57;3.67;;;13.40;99.90;;;;;;5049567;28;20754;-78
2021/08/28 02:06:48;;;;;;;3.77;3.47;;;13.40;99.90;;;;;;5050294;28;20191;-78
2021/08/28 02:09:45;;;;;;;3.83;3.63;;;13.40;99.90;;;;;;5044413;28;20186;-78
2021/08/28 02:12:39;;;;;;;3.40;3.20;;;13.40;99.90;;;;;;5043870;28;20536;-78
2021/08/28 02:15:10;;;;;;;4.67;4.27;;;13.30;99.90;;;;;;5044404;28;20431;-78
2021/08/28 02:18:20;;;;;;;4.63;3.63;;;13.30;99.90;;;;;;5049590;28;20440;-78
2021/08/28 02:20:53;;;;;;;4.00;3.70;;;13.10;99.90;;;;;;5048874;28;20471;-78
2021/08/28 02:23:26;;;;;;;4.00;3.60;;;13.20;99.90;;;;;;5054619;28;20434;-78
2021/08/28 02:26:19;;;;;;;4.47;3.40;;;13.30;99.90;;;;;;5037840;28;20435;-78
2021/08/28 02:29:01;;;;;;;4.23;3.70;;;13.40;99.90;;;;;;5049782;28;20459;-78
2021/08/28 02:31:32;;;;;;;3.40;3.10;;;13.40;99.90;;;;;;5049544;28;20432;-78
2021/08/28 02:33:59;;;;;;;3.77;3.47;;;13.30;99.90;;;;;;5048992;28;21047;-78
2021/08/28 02:36:25;;;;;;;3.63;3.33;;;13.30;99.90;;;;;;5055230;28;20494;-78
2021/08/28 02:38:53;;;;;;;4.47;4.07;;;13.50;99.90;;;;;;5048727;28;20524;-77
2021/08/28 02:41:20;;;;;;;5.33;4.83;;;13.20;99.90;;;;;;5048876;28;20241;-78
2021/08/28 02:43:47;;;;;;;7.67;5.67;;;13.40;99.90;;;;;;5048837;28;20523;-78
2021/08/28 02:46:14;;;;;;;5.03;4.60;;;13.20;99.90;;;;;;5055086;28;20489;-77
2021/08/28 02:48:42;;;;;;;5.37;4.80;;;13.30;99.90;;;;;;5048690;28;20503;-78
2021/08/28 02:51:10;;;;;;;5.93;4.77;;;13.40;99.90;;;;;;5049172;28;20443;-78
2021/08/28 02:53:43;;;;;;;6.07;5.20;;;13.40;99.90;;;;;;5048994;28;20471;-78
2021/08/28 02:56:10;;;;;;;5.47;4.93;;;13.30;99.90;;;;;;5055512;28;20441;-77
2021/08/28 02:58:36;;;;;;;5.50;5.00;;;13.30;99.90;;;;;;5048742;28;20956;-77
2021/08/28 03:01:04;;;;;;;6.70;6.10;;;13.30;99.90;;;;;;5048521;28;21003;-78
2021/08/28 03:03:31;;;;;;;5.23;4.83;;;13.50;99.90;;;;;;5048810;28;20992;-78
2021/08/28 03:05:57;;;;;;;6.17;5.60;;;13.20;99.90;;;;;;5055334;28;20485;-78
2021/08/28 03:08:23;;;;;;;6.47;5.63;;;13.30;99.90;;;;;;5047044;28;20991;-78
2021/08/28 03:10:50;;;;;;;8.27;6.10;;;13.30;99.90;;;;;;5048885;28;20449;-78
2021/08/28 03:13:17;;;;;;;7.07;5.70;;;13.40;99.90;;;;;;5049501;28;20225;-78
2021/08/28 03:15:45;;;;;;;5.80;5.30;;;13.20;99.90;;;;;;5049271;28;20429;-78
2021/08/28 03:18:12;;;;;;;6.07;5.47;;;13.20;99.90;;;;;;5049063;28;20849;-78
2021/08/28 03:20:40;;;;;;;5.80;5.20;;;13.40;99.90;;;;;;5049223;28;20435;-79
2021/08/28 03:23:07;;;;;;;6.40;5.80;;;13.40;99.90;;;;;;5048873;28;20499;-79
2021/08/28 03:25:34;;;;;;;7.83;6.70;;;13.50;99.90;;;;;;5049094;28;20444;-79
2021/08/28 03:28:01;;;;;;;9.33;6.93;;;13.30;99.90;;;;;;5048957;28;21248;-79
2021/08/28 03:30:28;;;;;;;9.53;6.47;;;13.20;99.90;;;;;;5048619;28;20494;-79
2021/08/28 03:32:54;;;;;;;6.63;6.03;;;13.40;99.90;;;;;;5051487;28;20459;-79
2021/08/28 03:35:20;;;;;;;12.93;8.13;;;13.40;99.90;;;;;;5051239;28;20476;-80
2021/08/28 03:37:45;;;;;;;10.57;8.50;;;13.40;99.90;;;;;;5059398;28;20947;-80
2021/08/28 03:40:12;;;;;;;8.53;7.13;;;13.40;99.90;;;;;;5052358;28;20190;-80
2021/08/28 03:42:40;;;;;;;9.90;7.73;;;13.30;99.90;;;;;;5053186;28;20468;-80
2021/08/28 03:45:08;;;;;;;7.87;6.67;;;13.40;99.90;;;;;;5052179;28;20452;-80
2021/08/28 03:47:36;;;;;;;7.07;6.27;;;13.40;99.90;;;;;;5051832;28;20437;-79
2021/08/28 03:50:03;;;;;;;9.33;6.03;;;13.50;99.90;;;;;;5056522;28;20437;-80
2021/08/28 03:52:28;;;;;;;6.90;6.30;;;13.30;99.90;;;;;;5052127;28;20439;-80
2021/08/28 03:54:54;;;;;;;8.80;6.03;;;13.50;99.90;;;;;;5052304;28;20519;-82
2021/08/28 03:57:19;;;;;;;5.93;5.17;;;13.60;99.90;;;;;;5055513;28;20996;-82
2021/08/28 03:59:45;;;;;;;7.57;6.97;;;13.40;99.90;;;;;;5052104;28;20199;-82
2021/08/28 04:02:10;;;;;;;9.43;6.80;;;13.40;99.90;;;;;;5052460;28;20561;-82
2021/08/28 04:04:36;;;;;;;7.67;6.60;;;13.60;99.90;;;;;;5052026;28;20205;-82
2021/08/28 04:07:01;;;;;;;7.57;6.80;;;13.40;99.90;;;;;;5054021;28;20313;-81
2021/08/28 04:09:27;;;;;;;6.77;6.07;;;13.50;99.90;;;;;;5053416;28;20210;-82
2021/08/28 04:11:52;;;;;;;9.00;8.10;;;13.50;99.90;;;;;;5051999;28;20190;-82
2021/08/28 04:14:18;;;;;;;12.10;9.07;;;13.40;99.90;;;;;;5051906;28;20573;-81
2021/08/28 04:16:43;;;;;;;13.30;10.10;;;13.50;99.90;;;;;;5051669;28;20669;-82
2021/08/28 04:19:09;;;;;;;14.37;10.67;;;13.60;99.90;;;;;;5052515;28;20183;-82
2021/08/28 04:21:34;;;;;;;13.13;11.20;;;13.30;99.90;;;;;;5051677;28;20209;-82
2021/08/28 04:24:00;;;;;;;14.23;11.80;;;13.40;99.90;;;;;;5056976;28;20189;-82
2021/08/28 04:26:26;;;;;;;11.27;10.00;;;13.40;99.90;;;;;;5054012;28;20274;-82
2021/08/28 04:28:55;;;;;;;11.03;9.87;;;13.70;99.90;;;;;;5052029;28;20214;-82
2021/08/28 04:31:21;;;;;;;13.00;11.07;;;13.40;99.90;;;;;;5051647;28;20250;-82
2021/08/28 04:33:46;;;;;;;11.50;10.10;;;13.40;99.90;;;;;;5051277;28;20932;-82
2021/08/28 04:36:12;;;;;;;13.33;10.90;;;13.50;99.90;;;;;;5056474;28;20666;-82
2021/08/28 04:38:37;;;;;;;16.60;13.53;;;13.30;99.90;;;;;;5051241;28;20218;-81
2021/08/28 04:41:03;;;;;;;16.90;12.10;;;13.30;99.90;;;;;;5051353;28;20292;-81
2021/08/28 04:43:28;;;;;;;14.80;10.97;;;13.40;99.90;;;;;;5058101;28;20182;-81
2021/08/28 04:45:54;;;;;;;16.23;12.30;;;13.50;99.90;;;;;;5050741;28;20182;-82
2021/08/28 04:48:19;;;;;;;14.07;10.83;;;13.40;99.90;;;;;;5051287;28;20736;-82
2021/08/28 04:50:45;;;;;;;13.13;10.43;;;13.20;99.90;;;;;;5055459;28;20182;-82
2021/08/28 04:53:10;;;;;;;13.20;11.10;;;13.40;99.90;;;;;;5051312;28;20300;-82
2021/08/28 04:55:36;;;;;;;17.20;13.97;;;13.50;99.90;;;;;;5050928;28;20179;-81
2021/08/28 04:58:01;;;;;;;18.07;12.50;;;13.40;99.90;;;;;;5051999;28;20194;-81
2021/08/28 05:00:27;;;;;;;15.40;12.70;;;13.70;99.90;;;;;;5051050;28;20526;-81
2021/08/28 05:02:52;;;;;;;20.13;14.80;;;13.40;99.90;;;;;;5050936;28;20958;-79
2021/08/28 05:05:18;;;;;;;21.47;14.50;;;13.20;99.90;;;;;;5050812;28;20214;-77
2021/08/28 05:07:43;;;;;;;20.70;14.47;;;13.20;99.90;;;;;;5053690;28;20386;-81
2021/08/28 05:10:09;;;;;;;20.57;15.23;;;13.40;99.90;;;;;;5066381;28;20235;-81
2021/08/28 05:12:35;;;;;;;21.87;13.57;;;13.40;99.90;;;;;;5051053;28;20185;-79
2021/08/28 05:15:00;;;;;;;19.57;13.53;;;13.50;99.90;;;;;;5050469;28;20421;-82
2021/08/28 05:17:27;;;;;;;21.20;13.30;;;13.30;99.90;;;;;;5055090;28;20181;-81
2021/08/28 05:19:52;;;;;;;15.50;11.93;;;13.40;99.90;;;;;;5050524;28;20194;-82
2021/08/28 05:22:18;;;;;;;15.77;12.07;;;13.40;99.90;;;;;;5032853;28;20461;-82
2021/08/28 05:24:44;;;;;;;13.97;11.13;;;13.50;99.90;;;;;;5050836;28;20539;-82
2021/08/28 05:27:09;;;;;;;17.27;12.27;;;13.50;99.90;;;;;;5057922;28;20239;-81
2021/08/28 05:29:35;;;;;;;23.57;14.80;;;13.70;99.90;;;;;;5049861;28;20463;-82
2021/08/28 05:32:01;;;;;;;25.20;15.07;;;13.60;99.90;;;;;;5050163;28;20182;-82
2021/08/28 05:34:27;;;;;;;20.37;14.87;;;13.60;99.90;;;;;;5050166;28;20340;-81
2021/08/28 05:36:52;;;;;;;16.13;13.70;;;13.50;99.90;;;;;;5057717;28;20515;-82
2021/08/28 05:39:18;;;;;;;18.60;13.03;;;13.60;99.90;;;;;;5050291;28;20269;-82
2021/08/28 05:41:43;;;;;;;20.10;13.60;;;13.80;99.90;;;;;;5050522;28;20225;-84
2021/08/28 05:44:09;;;;;;;21.93;13.47;;;13.90;99.90;;;;;;5051000;28;20205;-82
2021/08/28 05:46:35;;;;;;;19.53;14.23;;;13.80;99.90;;;;;;5050019;28;20178;-81
2021/08/28 05:49:00;;;;;;;22.70;14.87;;;13.70;99.90;;;;;;5049684;28;20237;-82
2021/08/28 05:51:26;;;;;;;18.90;13.67;;;13.50;99.90;;;;;;5051167;28;20182;-82
2021/08/28 05:53:51;;;;;;;17.37;12.93;;;13.80;99.90;;;;;;5055161;28;20178;-82
2021/08/28 05:56:17;;;;;;;19.53;12.80;;;13.80;99.90;;;;;;5054987;28;20199;-81
2021/08/28 05:58:42;;;;;;;20.90;15.17;;;13.80;99.90;;;;;;5049966;28;20193;-80
2021/08/28 06:01:08;;;;;;;18.57;13.33;;;13.80;99.90;;;;;;5049638;28;20186;-82
2021/08/28 06:03:33;;;;;;;17.90;12.87;;;13.80;99.90;;;;;;5050325;28;20563;-82
2021/08/28 06:05:59;;;;;;;18.20;13.40;;;13.80;99.90;;;;;;5050107;28;20248;-82
2021/08/28 06:08:24;;;;;;;20.13;13.90;;;14.00;99.90;;;;;;5051107;28;20183;-81
2021/08/28 06:10:50;;;;;;;18.93;14.43;;;13.90;99.90;;;;;;5050662;28;20175;-80
2021/08/28 06:13:15;;;;;;;18.40;13.20;;;14.00;99.90;;;;;;5052857;28;20425;-81
2021/08/28 06:15:41;;;;;;;15.93;12.77;;;13.90;99.90;;;;;;5050296;28;20715;-83
2021/08/28 06:18:06;;;;;;;17.80;13.10;;;14.20;99.90;;;;;;5049638;28;20679;-82
2021/08/28 06:20:32;;;;;;;16.97;12.33;;;13.90;99.90;;;;;;5049700;28;20602;-81
2021/08/28 06:22:57;;;;;;;19.00;12.20;;;14.10;99.90;;;;;;5050578;28;20631;-83
2021/08/28 06:25:23;;;;;;;14.40;11.90;;;14.10;99.90;;;;;;5051516;28;20185;-82
2021/08/28 06:27:49;;;;;;;14.97;11.63;;;14.30;99.90;;;;;;5049600;28;20225;-81
2021/08/28 06:30:15;;;;;;;14.97;12.30;;;14.20;99.90;;;;;;5049314;28;20206;-82
2021/08/28 06:32:40;;;;;;;12.20;10.90;;;14.20;99.90;;;;;;5049447;28;20190;-82
2021/08/28 06:35:07;;;;;;;14.73;11.30;;;14.20;99.90;;;;;;5053458;28;20429;-84
2021/08/28 06:37:33;;;;;;;13.50;11.33;;;14.70;99.90;;;;;;5049561;28;20225;-83
2021/08/28 06:39:58;;;;;;;14.80;10.90;;;14.70;99.90;;;;;;5050475;28;20856;-82
2021/08/28 06:42:24;;;;;;;14.20;11.63;;;14.70;99.90;;;;;;5048743;28;20398;-82
2021/08/28 06:44:50;;;;;;;12.53;11.23;;;14.60;99.90;;;;;;5057368;28;20683;-82
2021/08/28 06:47:15;;;;;;;12.20;10.03;;;14.80;99.90;;;;;;5049106;28;20724;-82
2021/08/28 06:49:41;;;;;;;13.90;10.20;;;14.60;99.90;;;;;;5053869;28;20249;-82
2021/08/28 06:52:06;;;;;;;12.53;11.20;;;14.60;99.90;;;;;;5051918;28;20182;-82
2021/08/28 06:54:32;;;;;;;17.20;11.93;;;14.50;99.90;;;;;;5052593;28;20539;-82
2021/08/28 06:56:57;;;;;;;14.80;11.20;;;14.80;99.90;;;;;;5048917;28;20219;-82
2021/08/28 06:59:23;;;;;;;11.47;10.20;;;14.30;99.90;;;;;;5052461;28;20602;-82
2021/08/28 07:01:48;;;;;;;13.70;12.13;;;14.40;99.90;;;;;;5049107;28;20218;-80
2021/08/28 07:04:14;;;;;;;13.33;10.90;;;14.40;99.90;;;;;;5048683;28;20626;-81
2021/08/28 07:06:39;;;;;;;14.10;11.23;;;14.80;99.90;;;;;;5043155;28;20178;-80
2021/08/28 07:09:05;;;;;;;12.40;10.70;;;15.00;99.90;;;;;;5046673;28;20201;-80
2021/08/28 07:11:31;;;;;;;11.63;10.40;;;15.20;99.90;;;;;;5049030;28;20706;-80
2021/08/28 07:13:57;;;;;;;12.70;10.43;;;15.60;99.90;;;;;;5049008;28;20597;-83
2021/08/28 07:16:25;;;;;;;9.57;8.67;;;15.80;99.90;;;;;;5048215;28;20224;-83
2021/08/28 07:18:51;;;;;;;9.60;8.50;;;16.50;99.90;;;;;;5049609;28;20465;-85
2021/08/28 07:21:17;;;;;;;10.80;8.30;;;17.40;99.90;;;;;;5048119;28;20603;-80
2021/08/28 07:23:43;;;;;;;11.20;8.27;;;17.50;99.90;;;;;;5049114;28;20480;-82
2021/08/28 07:26:09;;;;;;;8.20;7.40;;;17.50;99.90;;;;;;5056782;28;20429;-81
2021/08/28 07:28:35;;;;;;;7.07;6.47;;;18.20;99.90;;;;;;5049965;28;20429;-86
2021/08/28 07:31:02;;;;;;;7.20;6.40;;;18.60;99.90;;;;;;5056040;28;20630;-82
2021/08/28 07:33:28;;;;;;;6.43;5.73;;;19.00;99.90;;;;;;5030980;28;20188;-76
2021/08/28 07:35:53;;;;;;;6.20;5.70;;;19.60;99.90;;;;;;5048396;28;20473;-79
2021/08/28 07:38:19;;;;;;;5.73;5.33;;;19.20;97.60;;;;;;5050252;28;20438;-76
2021/08/28 07:40:44;;;;;;;5.43;4.93;;;18.90;94.80;;;;;;5050819;28;20176;-80
2021/08/28 07:43:10;;;;;;;7.00;4.53;;;19.50;97.80;;;;;;5048393;28;20213;-79
2021/08/28 07:45:35;;;;;;;4.37;3.70;;;19.40;92.80;;;;;;5049271;28;20232;-79
2021/08/28 07:48:01;;;;;;;5.20;4.70;;;19.60;93.60;;;;;;5049158;28;20258;-79
2021/08/28 07:50:26;;;;;;;4.70;4.40;;;19.50;91.20;;;;;;5047900;28;20177;-79
2021/08/28 07:52:52;;;;;;;4.37;4.07;;;20.00;90.20;;;;;;5048703;28;20199;-79
2021/08/28 07:55:18;;;;;;;3.97;3.67;;;19.60;88.20;;;;;;5048174;28;20267;-81
2021/08/28 07:57:43;;;;;;;4.53;4.10;;;19.80;87.60;;;;;;5048601;28;20192;-80
2021/08/28 08:00:11;;;;;;;3.87;3.57;;;19.60;83.80;;;;;;5049891;28;20225;-80
2021/08/28 08:02:37;;;;;;;4.43;4.10;;;19.40;84.60;;;;;;5041993;28;20266;-81
2021/08/28 08:05:03;;;;;;;4.97;4.57;;;19.40;84.70;;;;;;5048017;28;20794;-81
2021/08/28 08:07:29;;;;;;;4.53;4.13;;;18.90;86.40;;;;;;5048190;28;20434;-81
2021/08/28 08:09:54;;;;;;;4.73;4.23;;;18.80;85.60;;;;;;5054335;28;20449;-81
2021/08/28 08:12:21;;;;;;;4.30;4.00;;;19.10;87.20;;;;;;5049511;28;20278;-83
2021/08/28 08:14:46;;;;;;;4.20;3.90;;;19.00;83.00;;;;;;5048355;28;20735;-78
2021/08/28 08:17:12;;;;;;;4.40;4.07;;;18.90;83.70;;;;;;5048377;28;20520;-81
2021/08/28 08:19:38;;;;;;;4.80;4.50;;;18.60;81.80;;;;;;5047853;28;20338;-83
2021/08/28 08:22:03;;;;;;;3.90;3.60;;;18.40;82.80;;;;;;5053135;28;20207;-82
2021/08/28 08:24:29;;;;;;;4.10;3.70;;;18.40;84.70;;;;;;5052240;28;20702;-82
2021/08/28 08:26:54;;;;;;;4.80;4.40;;;18.40;85.80;;;;;;5058986;28;20184;-82
2021/08/28 08:29:20;;;;;;;5.40;4.37;;;18.30;86.30;;;;;;5055189;28;20180;-83
2021/08/28 08:31:45;;;;;;;4.73;4.40;;;18.30;88.10;;;;;;5051472;28;20194;-83
2021/08/28 08:34:11;;;;;;;4.60;4.00;;;18.50;86.60;;;;;;5051193;28;20273;-85
2021/08/28 08:36:36;;;;;;;3.73;3.47;;;18.60;86.20;;;;;;5051578;28;20179;-84
2021/08/28 08:39:03;;;;;;;4.30;3.87;;;18.60;86.40;;;;;;5051694;28;20176;-81
2021/08/28 08:41:29;;;;;;;3.57;3.30;;;18.40;83.10;;;;;;5054753;28;20583;-84
2021/08/28 08:43:56;;;;;;;3.33;3.03;;;18.20;84.40;;;;;;5051371;28;20442;-83
2021/08/28 08:46:23;;;;;;;5.33;3.40;;;18.50;85.80;;;;;;5051359;28;20891;-84
2021/08/28 08:48:49;;;;;;;3.53;3.33;;;18.80;85.40;;;;;;5052511;28;20474;-83
2021/08/28 08:51:19;;;;;;;3.47;3.20;;;18.60;84.90;;;;;;5051400;28;20488;-83
2021/08/28 08:53:46;;;;;;;3.90;3.60;;;18.70;84.40;;;;;;5051642;28;20833;-85
2021/08/28 08:56:12;;;;;;;4.90;4.27;;;18.60;84.10;;;;;;5058201;28;20571;-81
2021/08/28 08:58:39;;;;;;;3.47;3.17;;;18.60;82.20;;;;;;5051968;28;20484;-85
2021/08/28 09:01:06;;;;;;;3.30;3.10;;;18.10;82.00;;;;;;5050840;28;20422;-84
2021/08/28 09:03:32;;;;;;;4.37;4.00;;;17.80;82.80;;;;;;5055159;28;20430;-84
2021/08/28 09:05:57;;;;;;;4.07;3.77;;;17.50;84.90;;;;;;5056469;28;20456;-84
2021/08/28 09:08:23;;;;;;;4.07;3.70;;;17.30;87.30;;;;;;5053705;28;20436;-83
2021/08/28 09:10:49;;;;;;;4.47;4.07;;;16.70;90.00;;;;;;5050249;28;20186;-85
2021/08/28 09:13:23;;;;;;;4.23;3.70;;;16.70;91.70;;;;;;5050623;28;20190;-84
2021/08/28 09:16:01;;;;;;;3.40;3.20;;;16.50;93.90;;;;;;5059806;28;20192;-84
2021/08/28 09:18:27;;;;;;;4.57;4.17;;;16.50;95.90;;;;;;5058901;28;20511;-84
2021/08/28 09:20:56;;;;;;;4.80;4.40;;;16.50;97.60;;;;;;5056214;28;20539;-85
2021/08/28 09:23:21;;;;;;;4.50;4.20;;;16.50;99.00;;;;;;5053005;28;20603;-84
2021/08/28 09:25:49;;;;;;;5.40;4.90;;;16.90;99.90;;;;;;5057908;28;20887;-84
2021/08/28 09:28:15;;;;;;;5.63;5.13;;;16.90;99.90;;;;;;5050597;28;20195;-85
2021/08/28 09:30:44;;;;;;;5.80;4.50;;;17.40;99.90;;;;;;5057422;28;20894;-83
2021/08/28 09:33:21;;;;;;;6.93;5.77;;;17.60;99.90;;;;;;5038554;28;20824;-82
2021/08/28 09:35:49;;;;;;;4.57;4.17;;;17.70;99.90;;;;;;5049897;28;20923;-81
2021/08/28 09:38:19;;;;;;;4.60;3.97;;;18.10;97.60;;;;;;5054883;28;20432;-85
2021/08/28 09:40:53;;;;;;;4.90;4.50;;;17.90;96.70;;;;;;5050515;28;20483;-85
2021/08/28 09:43:20;;;;;;;4.50;4.10;;;17.90;97.40;;;;;;5057315;28;20477;-83
2021/08/28 09:45:47;;;;;;;4.83;4.30;;;17.70;96.80;;;;;;5050754;28;20425;-81
2021/08/28 09:48:14;;;;;;;4.63;4.23;;;17.20;97.20;;;;;;5053883;28;20788;-83
2021/08/28 09:50:49;;;;;;;4.70;4.30;;;17.30;98.50;;;;;;5050898;28;20520;-83
2021/08/28 09:53:21;;;;;;;3.47;3.23;;;17.40;98.40;;;;;;5050756;28;20507;-83
2021/08/28 09:56:03;;;;;;;4.00;3.70;;;16.80;98.80;;;;;;5050645;28;20428;-83
2021/08/28 09:58:32;;;;;;;4.10;3.70;;;16.60;99.40;;;;;;5049552;28;20891;-82
2021/08/28 10:01:05;;;;;;;3.60;3.30;;;16.60;99.90;;;;;;5050481;28;20536;-80
2021/08/28 10:03:32;;;;;;;3.80;3.50;;;16.40;99.90;;;;;;5050621;28;20512;-82
2021/08/28 10:06:00;;;;;;;3.50;3.30;;;16.30;99.90;;;;;;5050122;28;20431;-84
2021/08/28 10:08:27;;;;;;;3.80;3.50;;;16.30;99.90;;;;;;5051132;28;20425;-82
2021/08/28 10:10:53;;;;;;;3.80;3.47;;;16.10;99.90;;;;;;5058418;28;20431;-81
2021/08/28 10:13:22;;;;;;;3.50;3.30;;;16.30;99.90;;;;;;5042590;28;20436;-82
2021/08/28 10:15:49;;;;;;;4.00;3.70;;;16.20;99.90;;;;;;5050318;28;20519;-82
2021/08/28 10:18:15;;;;;;;3.57;3.27;;;16.20;99.90;;;;;;5050261;28;20425;-83
2021/08/28 10:20:42;;;;;;;3.37;3.07;;;16.00;99.90;;;;;;5049665;28;20433;-83
2021/08/28 10:23:09;;;;;;;3.27;3.07;;;16.20;99.90;;;;;;5049196;28;20471;-82
2021/08/28 10:25:37;;;;;;;3.60;3.37;;;15.90;99.90;;;;;;5050005;28;20832;-82
2021/08/28 10:28:04;;;;;;;4.20;3.90;;;16.00;99.90;;;;;;5049344;28;20421;-82
2021/08/28 10:30:30;;;;;;;4.97;4.40;;;16.10;99.90;;;;;;5049477;28;20426;-82
2021/08/28 10:32:56;;;;;;;4.53;4.13;;;15.70;99.90;;;;;;5048437;28;20429;-83
2021/08/28 10:35:22;;;;;;;4.17;3.87;;;16.00;99.90;;;;;;5049288;28;20432;-82
2021/08/28 10:37:49;;;;;;;3.70;3.37;;;15.90;99.90;;;;;;5048682;28;20453;-83
2021/08/28 10:40:18;;;;;;;5.17;4.67;;;15.90;99.90;;;;;;5047296;28;20429;-82
2021/08/28 10:42:44;;;;;;;4.53;4.13;;;16.00;99.90;;;;;;5038778;28;20688;-82
2021/08/28 10:45:11;;;;;;;3.97;3.70;;;15.80;99.90;;;;;;5047568;28;20449;-81
2021/08/28 10:47:36;;;;;;;4.00;3.60;;;15.50;99.90;;;;;;5049135;28;20205;-81
2021/08/28 10:50:06;;;;;;;3.90;3.47;;;15.60;99.90;;;;;;5051504;28;20472;-81
2021/08/28 10:52:34;;;;;;;3.60;3.30;;;15.90;99.90;;;;;;5045332;28;20187;-82
2021/08/28 10:55:10;;;;;;;3.60;3.20;;;15.60;99.90;;;;;;5049225;28;20526;-81
2021/08/28 10:57:37;;;;;;;4.50;4.20;;;15.60;99.90;;;;;;5041840;28;20463;-82
2021/08/28 11:00:07;;;;;;;3.57;3.27;;;15.70;99.90;;;;;;5054753;28;20464;-82
2021/08/28 11:02:53;;;;;;;4.07;3.77;;;16.10;99.90;;;;;;5055457;28;20457;-81
2021/08/28 11:05:32;;;;;;;4.97;4.50;;;16.20;99.90;;;;;;5048766;28;20949;-81
2021/08/28 11:08:13;;;;;;;4.57;4.20;;;16.30;99.90;;;;;;5048235;28;20435;-81
2021/08/28 11:10:39;;;;;;;4.27;3.97;;;16.70;99.90;;;;;;5048657;28;20450;-81
2021/08/28 11:13:05;;;;;;;3.77;3.47;;;16.90;99.90;;;;;;5054735;28;20436;-80
2021/08/28 11:15:34;;;;;;;4.13;3.90;;;16.80;99.90;;;;;;5048886;28;20192;-81
2021/08/28 11:18:35;;;;;;;3.57;3.27;;;16.70;99.90;;;;;;5048974;28;20425;-81
2021/08/28 11:21:07;;;;;;;4.20;3.90;;;16.40;99.90;;;;;;5049573;28;20443;-80
2021/08/28 11:23:41;;;;;;;3.37;3.17;;;16.60;99.90;;;;;;5048027;28;20825;-82
2021/08/28 11:26:08;;;;;;;3.63;3.33;;;16.70;99.90;;;;;;5048873;28;20427;-82
2021/08/28 11:28:38;;;;;;;3.30;3.10;;;16.60;99.90;;;;;;5048609;28;20933;-80
2021/08/28 11:31:04;;;;;;;3.63;3.33;;;16.70;99.90;;;;;;5049686;28;20437;-80
2021/08/28 11:33:33;;;;;;;3.57;3.27;;;16.70;99.90;;;;;;5048262;28;20540;-83
2021/08/28 11:36:07;;;;;;;3.43;3.23;;;16.50;99.90;;;;;;5050016;28;20496;-81
2021/08/28 11:38:53;;;;;;;3.60;3.30;;;16.40;99.90;;;;;;5050017;28;20445;-81
2021/08/28 11:41:23;;;;;;;3.27;2.97;;;16.70;99.90;;;;;;5048844;28;20455;-80
2021/08/28 11:43:51;;;;;;;3.37;3.17;;;16.60;99.90;;;;;;5048454;28;20930;-81
2021/08/28 11:46:18;;;;;;;3.40;3.10;;;16.50;99.90;;;;;;5049369;28;20498;-80
2021/08/28 11:48:48;;;;;;;3.30;3.10;;;16.60;99.90;;;;;;5051090;28;20464;-80
2021/08/28 11:51:19;;;;;;;3.40;3.10;;;16.70;99.90;;;;;;5054525;28;20802;-80
2021/08/28 11:53:46;;;;;;;2.93;2.73;;;16.70;99.90;;;;;;5049254;28;20932;-82
2021/08/28 11:56:23;;;;;;;3.90;3.60;;;16.80;99.90;;;;;;5051024;28;20447;-80
2021/08/28 11:58:57;;;;;;;3.40;3.20;;;17.20;99.90;;;;;;5052933;28;20428;-80
2021/08/28 12:01:31;;;;;;;3.73;3.30;;;16.90;99.90;;;;;;5052194;28;20420;-81
2021/08/28 12:04:03;;;;;;;3.07;2.87;;;17.20;99.90;;;;;;5052087;28;20429;-81
2021/08/28 12:06:30;;;;;;;3.17;2.83;;;17.30;99.90;;;;;;5054099;28;20778;-80
2021/08/28 12:08:56;;;;;;;3.30;3.10;;;17.10;99.90;;;;;;5052727;28;20532;-81
2021/08/28 12:11:23;;;;;;;2.70;2.60;;;17.30;99.90;;;;;;5052542;28;20440;-80
2021/08/28 12:14:00;;;;;;;3.30;3.10;;;17.50;99.90;;;;;;5053027;28;20891;-80
2021/08/28 12:16:34;;;;;;;3.40;3.20;;;17.40;99.90;;;;;;5055706;28;20800;-81
2021/08/28 12:19:03;;;;;;;2.93;2.77;;;18.00;99.90;;;;;;5058546;28;20436;-81
2021/08/28 12:21:30;;;;;;;2.80;2.60;;;18.00;99.90;;;;;;5049818;28;20470;-81
2021/08/28 12:23:56;;;;;;;2.60;2.50;;;18.80;99.90;;;;;;5053532;28;20517;-81
2021/08/28 12:26:22;;;;;;;2.70;2.50;;;19.20;99.90;;;;;;5058695;28;20520;-81
2021/08/28 12:28:49;;;;;;;2.50;2.30;;;19.50;96.10;;;;;;5051923;28;20655;-80
2021/08/28 12:31:18;;;;;;;2.50;2.30;;;20.00;92.70;;;;;;5052343;28;21142;-80
2021/08/28 12:33:44;;;;;;;2.60;2.40;;;20.30;89.50;;;;;;5051695;28;21007;-81
2021/08/28 12:36:31;;;;;;;2.43;2.23;;;20.70;88.50;;;;;;5051449;28;20447;-81
2021/08/28 12:39:06;;;;;;;1.80;1.70;;;22.10;86.60;;;;;;5052936;28;20431;-80
2021/08/28 12:41:32;;;;;;;2.10;2.00;;;23.30;79.90;;;;;;5058912;28;20460;-82
2021/08/28 12:43:58;;;;;;;2.93;2.67;;;24.40;73.80;;;;;;5050241;28;20458;-77
2021/08/28 12:46:24;;;;;;;2.27;2.17;;;24.60;64.00;;;;;;5049973;28;20430;-81